Time;durP1;ratioP1;P1;durP2;ratioP2;P2;SDS_P1;SDS_P2;PMS_P1;PMS_P2;Temp;Humidity;BMP_temperature;BMP_pressure;BME280_temperature;BME280_humidity;BME280_pressure;Samples;Min_cycle;Max_cycle;Signal;HPM_P1;HPM_P2
2022/03/24 00:02:02;;;;;;;75.50;34.88;;;;;;;-0.29;73.53;99027.86;1748633;80;21013;-57
2022/03/24 00:04:29;;;;;;;74.95;31.05;;;;;;;-0.20;70.52;99035.25;1743294;82;21017;-57
2022/03/24 00:06:56;;;;;;;84.42;30.02;;;;;;;-0.13;69.27;99025.50;1743268;82;21876;-56
2022/03/24 00:09:23;;;;;;;62.33;27.87;;;;;;;-0.18;68.69;99036.70;1743121;82;20979;-57
2022/03/24 00:11:50;;;;;;;61.20;30.20;;;;;;;-0.13;69.06;99033.50;1742891;82;21014;-57
2022/03/24 00:14:17;;;;;;;69.77;33.40;;;;;;;-0.07;68.53;99024.77;1742964;81;20994;-57
2022/03/24 00:16:44;;;;;;;71.95;34.33;;;;;;;-0.06;67.80;99026.41;1743051;82;21360;-57
2022/03/24 00:19:11;;;;;;;83.95;38.88;;;;;;;-0.09;70.33;99028.09;1742951;81;20971;-57
2022/03/24 00:21:38;;;;;;;77.12;36.53;;;;;;;-0.16;71.36;99030.70;1742902;82;21002;-56
2022/03/24 00:24:07;;;;;;;84.67;36.50;;;;;;;-0.19;69.17;99030.23;1743090;81;21061;-57
2022/03/24 00:26:35;;;;;;;79.77;37.88;;;;;;;-0.30;68.59;99031.54;1743281;82;21050;-57
2022/03/24 00:29:02;;;;;;;85.17;38.05;;;;;;;-0.43;69.51;99022.86;1742933;82;21073;-57
2022/03/24 00:31:29;;;;;;;71.92;36.35;;;;;;;-0.43;71.49;99028.19;1743120;82;21022;-57
2022/03/24 00:33:57;;;;;;;72.55;34.88;;;;;;;-0.50;73.77;99029.13;1743026;81;21002;-57
2022/03/24 00:36:24;;;;;;;63.78;30.08;;;;;;;-0.51;72.84;99021.65;1742973;82;21022;-57
2022/03/24 00:38:53;;;;;;;65.32;30.20;;;;;;;-0.50;69.35;99028.62;1743118;81;21068;-57
2022/03/24 00:41:20;;;;;;;58.02;27.98;;;;;;;-0.59;69.73;99014.58;1743146;82;20979;-57
2022/03/24 00:43:48;;;;;;;61.95;30.05;;;;;;;-0.59;71.43;99014.58;1743083;81;21489;-57
2022/03/24 00:46:16;;;;;;;62.03;28.75;;;;;;;-0.56;70.39;99017.37;1743302;82;20986;-57
2022/03/24 00:48:43;;;;;;;64.47;31.55;;;;;;;-0.56;72.19;99017.37;1743135;82;21005;-57
2022/03/24 00:51:10;;;;;;;65.00;30.37;;;;;;;-0.58;72.32;99017.56;1745357;80;21040;-57
2022/03/24 00:53:37;;;;;;;64.77;30.57;;;;;;;-0.67;73.62;99013.34;1743110;81;21006;-57
2022/03/24 00:56:04;;;;;;;68.07;30.48;;;;;;;-0.67;71.05;99013.34;1749757;80;21727;-57
2022/03/24 00:58:31;;;;;;;59.08;30.23;;;;;;;-0.77;72.59;99018.11;1747508;80;20977;-57
2022/03/24 01:00:58;;;;;;;58.95;28.32;;;;;;;-0.77;70.72;99019.92;1743143;82;21020;-57
2022/03/24 01:03:25;;;;;;;61.55;28.17;;;;;;;-0.80;69.67;99012.31;1743160;82;21001;-57
2022/03/24 01:05:52;;;;;;;61.70;28.75;;;;;;;-0.92;71.50;99014.10;1743084;82;21423;-57
2022/03/24 01:08:20;;;;;;;61.88;28.10;;;;;;;-0.93;69.62;99015.11;1743030;81;21459;-57
2022/03/24 01:10:48;;;;;;;58.83;28.20;;;;;;;-0.99;69.50;99011.84;1743280;82;20990;-57
2022/03/24 01:13:15;;;;;;;67.82;30.97;;;;;;;-1.04;72.03;99007.55;1743259;81;21065;-57
2022/03/24 01:15:45;;;;;;;58.78;28.73;;;;;;;-1.04;72.86;99012.05;1743049;82;21444;-56
2022/03/24 01:18:14;;;;;;;66.70;30.25;;;;;;;-1.02;72.26;99006.89;1743168;81;20987;-57
2022/03/24 01:20:43;;;;;;;59.67;28.73;;;;;;;-1.07;72.69;99013.75;1745023;80;21187;-57
2022/03/24 01:23:11;;;;;;;48.95;24.40;;;;;;;-1.07;70.72;99013.25;1751987;80;20994;-57
2022/03/24 01:25:42;;;;;;;56.83;24.60;;;;;;;-1.08;70.06;99010.77;1743061;81;20987;-56
2022/03/24 01:28:09;;;;;;;55.40;26.10;;;;;;;-1.05;72.45;99002.42;1742856;82;21054;-56
2022/03/24 01:30:39;;;;;;;;;;;;;;;-0.97;73.39;99001.01;1752342;80;22025;-57
2022/03/24 01:33:06;;;;;;;48.00;24.90;;;;;;;-0.91;74.27;98997.13;1753064;80;21718;-57
2022/03/24 01:35:32;;;;;;;47.60;22.65;;;;;;;-0.81;74.63;98998.69;1743052;80;21009;-57
2022/03/24 01:38:00;;;;;;;48.50;21.15;;;;;;;-0.76;73.88;98994.48;1754395;80;21065;-56
2022/03/24 01:40:27;;;;;;;53.98;25.68;;;;;;;-0.74;71.43;98989.79;1743080;81;21037;-57
2022/03/24 01:42:55;;;;;;;51.60;26.37;;;;;;;-0.86;73.03;98993.39;1760775;80;21009;-57
2022/03/24 01:45:21;;;;;;;46.90;23.62;;;;;;;-0.92;73.94;98993.32;1768312;80;21444;-56
2022/03/24 01:47:49;;;;;;;56.65;25.00;;;;;;;-0.93;71.00;98993.83;1760219;80;21052;-57
2022/03/24 01:50:15;;;;;;;61.42;22.15;;;;;;;-1.07;73.27;98998.62;1758418;80;21056;-57
2022/03/24 01:52:44;;;;;;;46.40;20.75;;;;;;;-1.08;70.47;98997.47;1743033;82;21523;-57
2022/03/24 01:55:11;;;;;;;43.07;21.73;;;;;;;-1.18;72.44;98992.42;1767117;80;21410;-57
2022/03/24 01:57:38;;;;;;;52.13;24.25;;;;;;;-1.18;73.30;98990.58;1754399;80;21048;-57
2022/03/24 02:00:07;;;;;;;51.15;24.20;;;;;;;-1.17;74.77;98994.06;1743382;80;20990;-56
2022/03/24 02:02:34;;;;;;;43.63;20.77;;;;;;;-1.14;74.97;99001.16;1743086;81;22154;-57
2022/03/24 02:05:01;;;;;;;41.60;22.25;;;;;;;-1.08;71.92;98998.80;1743194;82;21450;-56
2022/03/24 02:07:30;;;;;;;52.15;25.82;;;;;;;-1.09;72.17;99001.97;1757446;80;20997;-57
2022/03/24 02:09:59;;;;;;;50.40;23.40;;;;;;;-1.11;73.58;99001.33;1774086;80;21969;-57
2022/03/24 02:12:26;;;;;;;43.25;22.58;;;;;;;-1.11;72.58;99003.14;1771716;80;21021;-57
2022/03/24 02:14:58;;;;;;;54.45;22.87;;;;;;;-1.15;73.84;98998.70;1773869;80;21017;-57
2022/03/24 02:17:26;;;;;;;57.88;25.48;;;;;;;-1.17;71.87;98998.05;1748052;80;25990;-57
2022/03/24 02:19:50;;;;;;;43.40;22.58;;;;;;;-1.23;73.94;98998.27;1743132;81;21030;-57
2022/03/24 02:22:17;;;;;;;53.80;25.27;;;;;;;-1.30;75.16;99005.80;1754287;80;21263;-57
2022/03/24 02:24:45;;;;;;;53.17;23.98;;;;;;;-1.34;74.86;98996.55;1743243;81;20966;-56
2022/03/24 02:27:12;;;;;;;37.83;19.20;;;;;;;-1.40;75.96;99001.25;1743046;81;21045;-57
2022/03/24 02:29:40;;;;;;;45.65;24.27;;;;;;;-1.48;76.44;99000.81;1743249;82;21041;-56
2022/03/24 02:32:08;;;;;;;56.40;23.45;;;;;;;-1.53;77.05;98998.70;1754492;80;21038;-57
2022/03/24 02:34:40;;;;;;;49.70;22.35;;;;;;;-1.52;74.16;98996.87;1687205;84;21423;-57
2022/03/24 02:37:10;;;;;;;48.23;24.23;;;;;;;-1.54;73.43;98996.20;1742744;81;21052;-57
2022/03/24 02:39:40;;;;;;;56.90;25.10;;;;;;;-1.57;76.09;98997.39;1743231;82;20987;-56
2022/03/24 02:42:13;;;;;;;45.80;24.20;;;;;;;-1.60;75.38;98993.77;1742129;81;21026;-57
2022/03/24 02:44:39;;;;;;;46.28;23.07;;;;;;;-1.56;74.83;98993.72;1742823;82;20994;-57
2022/03/24 02:47:08;;;;;;;45.90;23.02;;;;;;;-1.56;73.87;99000.37;1743177;80;21013;-57
2022/03/24 02:49:35;;;;;;;49.65;22.30;;;;;;;-1.59;73.95;99006.55;1741322;82;21045;-57
2022/03/24 02:52:03;;;;;;;44.58;21.23;;;;;;;-1.63;72.23;99004.73;1741720;81;21049;-57
2022/03/24 02:54:30;;;;;;;35.23;16.73;;;;;;;-1.69;72.89;99005.47;1743487;82;21476;-57
2022/03/24 02:56:57;;;;;;;47.98;22.80;;;;;;;-1.70;73.38;99011.80;1742738;81;21046;-57
2022/03/24 02:59:24;;;;;;;38.23;20.48;;;;;;;-1.67;72.69;99012.76;1742968;82;21495;-57
2022/03/24 03:02:06;;;;;;;42.78;21.33;;;;;;;-1.61;73.56;99017.87;1743091;82;21013;-56
2022/03/24 03:04:33;;;;;;;36.73;19.73;;;;;;;-1.58;74.26;99013.52;1743174;82;21072;-57
2022/03/24 03:07:02;;;;;;;38.78;19.48;;;;;;;-1.53;74.68;99014.66;1743002;81;20994;-57
2022/03/24 03:09:30;;;;;;;37.95;20.25;;;;;;;-1.51;74.90;99018.45;1743310;82;26856;-57
2022/03/24 03:11:58;;;;;;;50.30;22.25;;;;;;;-1.54;75.77;99015.66;1743004;82;21620;-57
2022/03/24 03:14:26;;;;;;;49.23;21.65;;;;;;;-1.57;76.60;99012.02;1743260;82;21010;-57
2022/03/24 03:16:53;;;;;;;38.48;21.30;;;;;;;-1.59;75.91;99015.86;1743062;82;21522;-57
2022/03/24 03:19:20;;;;;;;46.83;21.15;;;;;;;-1.65;76.45;99013.40;1742796;81;21542;-57
2022/03/24 03:21:51;;;;;;;52.50;22.67;;;;;;;-1.72;76.73;99009.79;1743088;82;22365;-57
2022/03/24 03:24:17;;;;;;;39.00;20.48;;;;;;;-1.83;78.07;99015.02;1741158;82;21169;-57
2022/03/24 03:26:45;;;;;;;39.80;21.68;;;;;;;-1.87;77.37;99011.08;1742580;80;20998;-57
2022/03/24 03:29:12;;;;;;;43.78;21.35;;;;;;;-1.89;78.64;99010.40;1743264;82;21030;-56
2022/03/24 03:31:39;;;;;;;38.38;18.98;;;;;;;-1.89;74.22;99013.05;1748823;80;21017;-56
2022/03/24 03:34:07;;;;;;;39.10;19.65;;;;;;;-1.92;75.66;99010.77;1743191;81;21065;-57
2022/03/24 03:36:34;;;;;;;44.63;21.02;;;;;;;-1.88;74.14;99012.08;1756851;80;21328;-57
2022/03/24 03:39:01;;;;;;;36.55;20.75;;;;;;;-1.87;75.69;99012.41;1742926;81;21046;-57
2022/03/24 03:41:28;;;;;;;38.10;19.42;;;;;;;-1.85;77.37;99017.53;1743118;81;21502;-56
2022/03/24 03:43:55;;;;;;;50.45;20.72;;;;;;;-1.85;77.47;99018.86;1742903;81;21018;-56
2022/03/24 03:46:24;;;;;;;39.42;18.92;;;;;;;-1.85;74.04;99021.52;1739014;80;21088;-56
2022/03/24 03:48:51;;;;;;;32.45;16.95;;;;;;;-1.96;77.06;99016.62;1743054;81;22035;-57
2022/03/24 03:51:18;;;;;;;43.30;22.27;;;;;;;-1.88;73.39;99016.54;1760793;80;21137;-56
2022/03/24 03:53:45;;;;;;;37.15;20.23;;;;;;;-1.87;73.76;99009.75;1751556;80;21060;-57
2022/03/24 03:56:12;;;;;;;44.30;20.85;;;;;;;-1.86;75.60;99014.56;1766417;80;21450;-57
2022/03/24 03:58:39;;;;;;;40.30;20.75;;;;;;;-1.82;75.08;99008.70;1745587;80;21006;-57
2022/03/24 04:01:08;;;;;;;42.03;19.50;;;;;;;-1.79;76.67;99014.19;1743157;80;21085;-57
2022/03/24 04:03:38;;;;;;;36.38;16.73;;;;;;;-1.80;77.86;99012.00;1743249;81;20994;-56
2022/03/24 04:06:09;;;;;;;34.18;18.52;;;;;;;-1.79;74.54;99012.85;1744987;80;20973;-57
2022/03/24 04:08:37;;;;;;;40.80;20.68;;;;;;;-1.85;74.69;99013.05;1770393;80;21468;-56
2022/03/24 04:11:07;;;;;;;31.05;16.23;;;;;;;-1.89;78.29;99022.86;1765450;80;21009;-57
2022/03/24 04:13:35;;;;;;;33.88;18.42;;;;;;;-1.85;76.67;99026.84;1770164;80;21010;-57
2022/03/24 04:16:05;;;;;;;39.67;18.15;;;;;;;-1.83;79.24;99026.98;1768068;80;21048;-56
2022/03/24 04:18:32;;;;;;;41.42;22.55;;;;;;;-1.80;78.63;99033.76;1773750;80;21084;-57
2022/03/24 04:20:59;;;;;;;39.00;19.25;;;;;;;-1.77;77.63;99037.41;1766198;80;21003;-56
2022/03/24 04:23:26;;;;;;;45.12;20.57;;;;;;;-1.77;77.24;99043.55;1743017;81;20994;-57
2022/03/24 04:25:53;;;;;;;38.00;19.27;;;;;;;-1.76;76.31;99049.19;1747659;80;20986;-56
2022/03/24 04:28:20;;;;;;;49.35;23.62;;;;;;;-1.77;75.55;99050.20;1773658;80;21458;-57
2022/03/24 04:30:47;;;;;;;45.70;23.20;;;;;;;-1.82;75.64;99053.05;1763270;80;20994;-57
2022/03/24 04:33:15;;;;;;;52.40;20.02;;;;;;;-1.83;75.88;99054.88;1742886;81;21995;-57
2022/03/24 04:35:43;;;;;;;45.48;22.73;;;;;;;-1.84;78.72;99056.39;1743394;82;21014;-57
2022/03/24 04:38:09;;;;;;;53.85;27.17;;;;;;;-1.84;78.76;99059.05;1743083;81;21141;-57
2022/03/24 04:40:37;;;;;;;50.52;23.00;;;;;;;-1.87;78.48;99060.73;1748787;80;21379;-56
2022/03/24 04:43:04;;;;;;;51.70;24.77;;;;;;;-2.02;79.15;99061.96;1743080;81;21061;-57
2022/03/24 04:45:33;;;;;;;48.83;24.05;;;;;;;-2.04;77.87;99063.47;1743186;80;21065;-57
2022/03/24 04:48:00;;;;;;;54.50;25.88;;;;;;;-2.14;78.69;99067.31;1766009;80;26375;-57
2022/03/24 04:50:27;;;;;;;63.30;28.35;;;;;;;-2.18;77.94;99068.17;1758482;80;21628;-57
2022/03/24 04:52:54;;;;;;;48.78;23.42;;;;;;;-2.17;75.56;99069.83;1742880;81;21018;-57
2022/03/24 04:55:21;;;;;;;63.08;29.18;;;;;;;-2.23;75.26;99071.01;1743344;82;20982;-57
2022/03/24 04:57:48;;;;;;;69.97;30.57;;;;;;;-2.27;76.31;99066.05;1742768;81;21006;-56
2022/03/24 05:00:17;;;;;;;69.10;30.95;;;;;;;-2.21;78.60;99071.19;1743283;82;21170;-57
2022/03/24 05:02:45;;;;;;;69.42;31.50;;;;;;;-2.14;75.58;99077.44;1743128;81;21542;-56
2022/03/24 05:05:12;;;;;;;73.12;34.38;;;;;;;-2.16;75.30;99075.97;1743468;82;21411;-57
2022/03/24 05:07:41;;;;;;;84.65;38.60;;;;;;;-2.17;75.03;99056.55;1743086;82;20986;-57
2022/03/24 05:10:09;;;;;;;58.83;29.95;;;;;;;-2.10;74.84;99062.00;1743366;82;21021;-56
2022/03/24 05:12:40;;;;;;;53.58;25.85;;;;;;;-2.14;78.03;99079.27;1743161;81;21470;-57
2022/03/24 05:15:09;;;;;;;50.63;25.92;;;;;;;-2.14;78.03;99079.27;1743378;82;20983;-56
2022/03/24 05:17:37;;;;;;;66.87;30.12;;;;;;;-2.11;77.08;99081.59;1742951;82;21576;-56
2022/03/24 05:20:05;;;;;;;60.92;30.52;;;;;;;-2.10;77.34;99089.89;1743033;82;21454;-56
2022/03/24 05:22:32;;;;;;;43.23;20.50;;;;;;;-2.01;76.49;99083.03;1742243;81;22140;-57
2022/03/24 05:24:59;;;;;;;54.55;24.72;;;;;;;-1.93;75.99;99082.17;1742812;82;21061;-56
2022/03/24 05:27:26;;;;;;;61.50;26.55;;;;;;;-1.93;78.03;99080.84;1742990;81;21385;-57
2022/03/24 05:29:53;;;;;;;52.78;24.07;;;;;;;-1.89;77.24;99091.94;1743242;82;21025;-57
2022/03/24 05:32:19;;;;;;;57.85;28.32;;;;;;;-1.77;77.55;99094.55;1743121;81;21096;-57
2022/03/24 05:34:46;;;;;;;64.42;31.35;;;;;;;-1.59;76.29;99096.94;1743486;82;21493;-57
2022/03/24 05:37:14;;;;;;;55.55;28.98;;;;;;;-1.56;77.22;99094.73;1743023;82;21490;-57
2022/03/24 05:39:42;;;;;;;88.33;41.83;;;;;;;-1.52;76.51;99094.73;1743037;82;21542;-56
2022/03/24 05:42:09;;;;;;;77.97;41.60;;;;;;;-1.50;76.20;99094.55;1742790;82;21018;-57
2022/03/24 05:44:36;;;;;;;86.32;43.92;;;;;;;-1.46;75.85;99092.67;1743428;82;20986;-57
2022/03/24 05:47:05;;;;;;;78.72;42.70;;;;;;;-1.41;75.04;99090.83;1750683;80;21057;-57
2022/03/24 05:49:32;;;;;;;81.85;42.17;;;;;;;-1.47;78.15;99092.34;1777227;80;20993;-57
2022/03/24 05:51:59;;;;;;;71.80;39.40;;;;;;;-1.35;77.63;99094.11;1702346;82;21390;-56
2022/03/24 05:54:26;;;;;;;73.25;36.25;;;;;;;-1.29;74.77;99090.72;1754615;80;21005;-56
2022/03/24 05:56:53;;;;;;;70.83;35.08;;;;;;;-1.25;75.25;99093.87;1743094;82;21034;-56
2022/03/24 05:59:20;;;;;;;54.90;30.72;;;;;;;-1.16;76.19;99093.63;1743063;81;21069;-56
2022/03/24 06:01:47;;;;;;;69.22;32.73;;;;;;;-1.08;77.08;99102.55;1743253;82;21148;-56
2022/03/24 06:04:15;;;;;;;69.45;34.50;;;;;;;-0.98;76.88;99101.80;1743100;81;21715;-57
2022/03/24 06:06:42;;;;;;;90.60;37.30;;;;;;;-0.89;76.09;99107.38;1748733;80;21267;-57
2022/03/24 06:09:09;;;;;;;59.65;31.62;;;;;;;-0.74;75.83;99106.08;1754563;80;21434;-56
2022/03/24 06:11:37;;;;;;;84.42;34.35;;;;;;;-0.40;75.45;99105.58;1742721;80;21456;-57
2022/03/24 06:14:04;;;;;;;73.60;35.33;;;;;;;0.01;75.42;99115.27;1742642;81;20987;-57
2022/03/24 06:16:32;;;;;;;62.98;30.70;;;;;;;0.32;74.28;99108.86;1741524;81;21438;-56
2022/03/24 06:19:00;;;;;;;65.32;32.53;;;;;;;0.56;73.68;99112.02;1770225;80;21044;-57
2022/03/24 06:21:26;;;;;;;59.10;33.42;;;;;;;0.66;73.04;99114.88;1755029;80;21053;-57
2022/03/24 06:23:53;;;;;;;67.40;31.48;;;;;;;0.72;72.92;99118.13;1744934;81;22007;-57
2022/03/24 06:26:23;;;;;;;61.85;30.77;;;;;;;0.79;72.74;99112.36;1743152;82;21439;-57
2022/03/24 06:28:52;;;;;;;58.85;31.52;;;;;;;0.79;72.79;99120.36;1743065;81;21464;-57
2022/03/24 06:31:20;;;;;;;61.73;28.52;;;;;;;0.89;72.77;99110.19;1743059;82;20982;-57
2022/03/24 06:33:48;;;;;;;60.95;29.37;;;;;;;1.03;72.42;99111.98;1753271;80;21041;-57
2022/03/24 06:36:15;;;;;;;55.52;31.00;;;;;;;1.12;72.35;99117.50;1743914;80;21006;-56
2022/03/24 06:38:42;;;;;;;52.25;25.75;;;;;;;1.26;71.80;99110.91;1742738;81;20978;-57
2022/03/24 06:41:09;;;;;;;65.35;30.75;;;;;;;1.39;71.72;99115.86;1742946;82;22163;-56
2022/03/24 06:43:36;;;;;;;67.08;30.80;;;;;;;1.48;71.21;99109.86;1742722;82;21427;-56
2022/03/24 06:46:06;;;;;;;61.02;30.77;;;;;;;1.65;71.13;99109.05;1749050;80;21508;-57
2022/03/24 06:48:32;;;;;;;62.58;32.98;;;;;;;1.84;70.27;99108.85;1742926;82;20978;-57
2022/03/24 06:50:59;;;;;;;60.17;33.23;;;;;;;2.19;69.56;99105.63;1741402;81;21014;-57
2022/03/24 06:53:26;;;;;;;138.32;78.65;;;;;;;2.53;68.23;99103.39;1745778;80;21403;-57
2022/03/24 06:55:53;;;;;;;83.75;46.95;;;;;;;3.05;68.66;99104.00;1742611;80;21077;-57
2022/03/24 06:58:22;;;;;;;56.45;31.15;;;;;;;3.29;68.66;99108.45;1757232;80;21052;-57
2022/03/24 07:00:49;;;;;;;48.63;31.73;;;;;;;3.67;67.61;99103.25;1758654;80;20974;-57
2022/03/24 07:03:16;;;;;;;65.00;34.33;;;;;;;3.93;67.77;99111.27;1748845;80;21032;-57
2022/03/24 07:05:42;;;;;;;68.47;36.17;;;;;;;4.02;67.09;99111.86;1746574;80;22060;-58
2022/03/24 07:08:11;;;;;;;65.50;34.78;;;;;;;4.62;66.18;99108.41;1742209;80;21195;-57
2022/03/24 07:10:38;;;;;;;63.85;34.48;;;;;;;5.24;63.52;99106.76;1701820;82;21673;-57
2022/03/24 07:13:05;;;;;;;63.90;36.00;;;;;;;5.92;59.81;99115.38;1759070;80;20958;-57
2022/03/24 07:15:33;;;;;;;61.90;34.78;;;;;;;6.47;56.25;99115.36;1772906;80;21091;-57
2022/03/24 07:18:00;;;;;;;55.80;34.55;;;;;;;7.24;60.28;99107.44;1741646;80;21056;-57
2022/03/24 07:20:27;;;;;;;53.68;32.55;;;;;;;7.79;59.83;99104.45;1745563;80;21131;-58
2022/03/24 07:22:57;;;;;;;58.65;32.83;;;;;;;7.92;54.51;99111.76;1760326;80;20966;-57
2022/03/24 07:25:22;;;;;;;53.73;31.40;;;;;;;8.41;54.39;99108.25;1761751;80;21004;-56
2022/03/24 07:27:50;;;;;;;49.10;30.35;;;;;;;9.23;56.64;99110.61;1755342;80;21068;-57
2022/03/24 07:30:17;;;;;;;56.80;29.87;;;;;;;9.56;54.36;99106.25;1760655;80;21012;-58
2022/03/24 07:32:44;;;;;;;47.88;30.55;;;;;;;9.68;53.37;99104.30;1752095;80;21075;-58
2022/03/24 07:35:11;;;;;;;68.75;41.33;;;;;;;10.04;53.18;99106.16;1745752;80;21435;-57
2022/03/24 07:37:38;;;;;;;74.70;48.08;;;;;;;10.45;52.17;99104.30;1746760;80;21104;-56
2022/03/24 07:40:08;;;;;;;60.80;39.88;;;;;;;10.90;50.88;99096.94;1747683;80;21088;-58
2022/03/24 07:42:37;;;;;;;48.55;30.70;;;;;;;11.27;50.21;99091.59;1762153;79;21068;-58
2022/03/24 07:45:08;;;;;;;70.90;47.25;;;;;;;12.03;48.89;99078.59;1756115;80;20974;-58
2022/03/24 07:47:36;;;;;;;52.45;36.15;;;;;;;12.59;46.24;99081.56;1744514;80;21069;-57
2022/03/24 07:50:03;;;;;;;41.58;26.80;;;;;;;12.73;46.13;99083.22;1749023;80;21056;-57
2022/03/24 07:52:32;;;;;;;70.87;44.40;;;;;;;13.27;44.71;99076.02;1752278;80;21525;-58
2022/03/24 07:55:06;;;;;;;51.73;34.53;;;;;;;13.27;42.95;99070.58;1745600;80;39225;-58
2022/03/24 07:57:33;;;;;;;96.55;33.65;;;;;;;13.55;40.55;99062.39;1756883;80;21126;-57
2022/03/24 08:00:00;;;;;;;45.05;28.47;;;;;;;14.35;40.72;99069.28;1761952;80;21441;-57
2022/03/24 08:02:27;;;;;;;40.58;28.90;;;;;;;14.76;35.91;99065.03;1762976;80;21080;-57
2022/03/24 08:04:54;;;;;;;43.30;30.35;;;;;;;15.13;33.95;99061.26;1769363;80;21008;-57
2022/03/24 08:07:21;;;;;;;53.02;34.30;;;;;;;15.79;36.32;99059.33;1747654;80;21468;-57
2022/03/24 08:09:50;;;;;;;47.45;31.80;;;;;;;16.30;34.38;99059.33;1749395;80;21270;-57
2022/03/24 08:12:17;;;;;;;;;;;;;;;17.26;34.97;99056.37;1723904;82;20851;-57
2022/03/24 08:14:44;;;;;;;53.73;35.50;;;;;;;17.30;30.34;99049.21;1705109;83;20373;-57
2022/03/24 08:17:11;;;;;;;60.28;39.50;;;;;;;18.11;34.36;99054.63;1700054;83;22138;-57
2022/03/24 08:19:38;;;;;;;59.27;39.10;;;;;;;18.26;33.75;99052.96;1696546;83;21302;-57
2022/03/24 08:22:05;;;;;;;57.85;37.88;;;;;;;18.63;33.08;99048.37;1695740;83;21041;-58
2022/03/24 08:24:32;;;;;;;57.40;37.85;;;;;;;19.06;29.92;99052.11;1698880;83;21053;-58
2022/03/24 08:26:59;;;;;;;53.80;35.40;;;;;;;19.49;29.75;99041.45;1754810;80;20981;-58
2022/03/24 08:29:25;;;;;;;50.15;36.15;;;;;;;20.13;28.22;99041.95;1755512;80;21564;-58
2022/03/24 08:31:52;;;;;;;59.55;39.53;;;;;;;20.91;27.96;99038.03;1746456;80;21430;-58
2022/03/24 08:34:19;;;;;;;49.55;34.78;;;;;;;20.78;25.45;99041.77;1751546;80;21001;-58
2022/03/24 08:36:46;;;;;;;51.02;34.80;;;;;;;21.40;25.37;99038.70;1754462;80;20989;-58
2022/03/24 08:39:13;;;;;;;53.52;34.63;;;;;;;22.24;25.06;99038.00;1747256;80;21490;-58
2022/03/24 08:41:40;;;;;;;48.55;33.65;;;;;;;22.63;23.51;99043.47;1740723;82;21070;-58
2022/03/24 08:44:07;;;;;;;49.35;33.40;;;;;;;22.91;21.43;99045.20;1742948;80;21406;-58
2022/03/24 08:46:34;;;;;;;53.73;35.15;;;;;;;23.02;21.44;99047.78;1757999;80;21550;-58
2022/03/24 08:49:00;;;;;;;48.65;34.85;;;;;;;22.89;20.44;99044.12;1759045;80;21080;-58
2022/03/24 08:51:28;;;;;;;48.83;34.67;;;;;;;23.77;22.50;99047.78;1745778;80;21100;-58
2022/03/24 08:53:55;;;;;;;47.00;33.92;;;;;;;24.43;22.10;99043.48;1750691;80;21041;-58
2022/03/24 08:56:22;;;;;;;47.38;34.03;;;;;;;24.67;21.82;99040.70;1742856;80;21050;-59
2022/03/24 08:58:50;;;;;;;47.38;33.33;;;;;;;25.16;21.11;99044.78;1746510;80;21048;-58
2022/03/24 09:01:19;;;;;;;49.38;33.10;;;;;;;23.28;20.96;99052.52;1758560;80;21029;-58
2022/03/24 09:03:48;;;;;;;48.92;34.33;;;;;;;22.39;22.37;99051.83;1746104;80;21088;-58
2022/03/24 09:06:15;;;;;;;48.83;33.25;;;;;;;20.32;22.80;99045.82;1755361;80;20981;-58
2022/03/24 09:08:42;;;;;;;47.88;33.15;;;;;;;18.97;23.98;99054.78;1750618;80;21509;-57
2022/03/24 09:11:09;;;;;;;51.08;32.95;;;;;;;17.09;24.55;99052.80;1757490;80;21047;-57
2022/03/24 09:13:36;;;;;;;51.53;31.55;;;;;;;16.24;26.62;99055.05;1748617;80;21037;-57
2022/03/24 09:16:05;;;;;;;50.33;33.42;;;;;;;15.79;27.78;99051.69;1755208;80;21052;-57
2022/03/24 09:18:31;;;;;;;;;;;;;;;15.30;28.27;99055.40;1761011;80;21084;-57
2022/03/24 09:20:58;;;;;;;59.60;32.93;;;;;;;14.33;30.05;99063.30;1758619;80;21027;-57
2022/03/24 09:23:26;;;;;;;57.20;35.33;;;;;;;13.86;30.88;99064.54;1763168;80;21048;-57
2022/03/24 09:25:55;;;;;;;54.40;33.95;;;;;;;13.82;30.92;99069.70;1757680;80;20985;-57
2022/03/24 09:28:22;;;;;;;51.60;34.45;;;;;;;13.82;30.68;99066.98;1757159;80;21033;-57
2022/03/24 09:30:50;;;;;;;64.72;37.40;;;;;;;13.43;31.66;99058.60;1743805;80;21044;-57
2022/03/24 09:33:18;;;;;;;59.55;36.33;;;;;;;12.98;32.33;99059.34;1744578;80;21014;-56
2022/03/24 09:35:45;;;;;;;60.30;36.77;;;;;;;13.02;33.03;99059.64;1743027;80;20987;-57
2022/03/24 09:38:12;;;;;;;66.70;39.03;;;;;;;12.96;32.89;99060.16;1752621;80;21136;-57
2022/03/24 09:40:40;;;;;;;65.47;42.30;;;;;;;13.01;32.44;99053.92;1746648;80;21466;-57
2022/03/24 09:43:07;;;;;;;73.83;44.20;;;;;;;12.97;33.18;99059.07;1747690;80;21038;-57
2022/03/24 09:45:34;;;;;;;60.35;36.95;;;;;;;13.08;32.40;99059.38;1745937;80;21731;-56
2022/03/24 09:48:01;;;;;;;68.57;38.35;;;;;;;12.92;32.99;99063.16;1744761;80;21170;-57
2022/03/24 09:50:28;;;;;;;58.73;38.15;;;;;;;13.08;32.51;99059.92;1760136;80;21857;-57
2022/03/24 09:52:56;;;;;;;61.85;35.90;;;;;;;13.05;32.80;99053.64;1753372;80;21010;-57
2022/03/24 09:55:23;;;;;;;64.87;36.00;;;;;;;13.07;32.53;99060.98;1750200;80;21096;-57
2022/03/24 09:57:50;;;;;;;63.75;37.93;;;;;;;12.95;32.41;99061.25;1746415;80;21612;-57
2022/03/24 10:00:17;;;;;;;65.83;41.13;;;;;;;12.92;32.01;99063.98;1711278;82;20980;-57
2022/03/24 10:03:08;;;;;;;57.55;37.03;;;;;;;12.88;32.01;99065.59;1749107;80;21022;-56
2022/03/24 10:05:35;;;;;;;62.33;36.35;;;;;;;13.02;32.15;99063.72;1752853;80;21100;-57
2022/03/24 10:08:06;;;;;;;62.95;36.70;;;;;;;13.10;32.06;99063.19;1758674;80;21084;-57
2022/03/24 10:10:37;;;;;;;64.90;35.80;;;;;;;13.16;32.09;99064.80;1743069;80;21598;-57
2022/03/24 10:13:04;;;;;;;57.10;35.23;;;;;;;13.19;32.02;99062.41;1753544;80;21095;-57
2022/03/24 10:15:31;;;;;;;59.77;35.50;;;;;;;13.21;31.92;99062.94;1742997;80;21554;-57
2022/03/24 10:17:58;;;;;;;52.67;30.43;;;;;;;13.29;31.73;99060.77;1751642;80;21029;-57
2022/03/24 10:20:28;;;;;;;52.53;31.05;;;;;;;13.35;31.62;99067.86;1751188;80;20989;-57
2022/03/24 10:23:00;;;;;;;54.60;30.65;;;;;;;13.23;30.75;99064.03;1751488;80;21070;-57
2022/03/24 10:25:35;;;;;;;45.60;25.68;;;;;;;13.21;31.05;99065.66;1763025;80;21539;-57
2022/03/24 10:28:12;;;;;;;44.05;23.18;;;;;;;13.13;30.00;99066.17;1761289;80;20957;-56
2022/03/24 10:30:52;;;;;;;50.65;28.32;;;;;;;13.12;30.32;99060.45;1760720;80;21032;-55
2022/03/24 10:33:37;;;;;;;38.67;22.32;;;;;;;13.04;29.56;99066.98;1711801;82;21018;-57
2022/03/24 10:36:15;;;;;;;42.08;23.30;;;;;;;13.10;30.22;99055.84;1741742;81;21327;-57
2022/03/24 10:38:45;;;;;;;42.33;24.40;;;;;;;13.20;30.58;99057.77;1745448;80;21153;-57
2022/03/24 10:41:19;;;;;;;46.28;23.42;;;;;;;13.26;30.62;99057.52;1754631;80;21047;-57
2022/03/24 10:43:49;;;;;;;43.10;24.70;;;;;;;13.40;30.93;99055.05;1747032;80;21561;-57
2022/03/24 10:46:21;;;;;;;46.18;25.10;;;;;;;13.38;30.46;99060.50;1753168;80;21083;-57
2022/03/24 10:48:48;;;;;;;40.63;24.00;;;;;;;13.36;30.76;99061.32;1756375;80;21806;-57
2022/03/24 10:51:31;;;;;;;42.90;24.57;;;;;;;13.45;30.74;99062.41;1760833;80;21151;-57
2022/03/24 10:54:19;;;;;;;40.03;24.72;;;;;;;13.35;30.46;99056.42;1744189;80;20992;-57
2022/03/24 10:57:06;;;;;;;44.80;26.87;;;;;;;13.45;30.37;99052.33;1752836;80;21093;-57
2022/03/24 10:59:46;;;;;;;45.10;27.15;;;;;;;13.50;30.62;99043.33;1735576;80;20991;-57
2022/03/24 11:02:13;;;;;;;52.00;28.57;;;;;;;13.38;29.81;99045.52;1744764;80;21155;-57
2022/03/24 11:04:40;;;;;;;46.85;28.92;;;;;;;13.34;29.72;99052.08;1750025;80;21003;-57
2022/03/24 11:07:07;;;;;;;55.60;26.60;;;;;;;13.24;30.05;99043.88;1750472;80;21450;-57
2022/03/24 11:09:34;;;;;;;53.05;27.45;;;;;;;13.33;29.72;99041.43;1747352;80;21061;-57
2022/03/24 11:12:36;;;;;;;44.30;27.65;;;;;;;13.44;29.90;99043.08;1751762;80;21111;-57
2022/03/24 11:15:04;;;;;;;41.28;25.17;;;;;;;13.36;29.21;99039.00;1744248;80;21641;-58
2022/03/24 11:17:34;;;;;;;54.75;29.25;;;;;;;13.44;28.67;99037.09;1758186;80;21008;-57
2022/03/24 11:20:08;;;;;;;49.38;30.20;;;;;;;13.41;28.52;99033.53;1750156;80;21483;-57
2022/03/24 11:22:53;;;;;;;49.38;28.75;;;;;;;13.47;29.12;99038.44;1755884;80;21615;-58
2022/03/24 11:25:21;;;;;;;55.05;28.50;;;;;;;13.40;28.64;99035.98;1745763;80;21108;-58